Time;durP1;ratioP1;P1;durP2;ratioP2;P2;SDS_P1;SDS_P2;PMS_P1;PMS_P2;Temp;Humidity;BMP_temperature;BMP_pressure;BME280_temperature;BME280_humidity;BME280_pressure;Samples;Min_cycle;Max_cycle;Signal;HPM_P1;HPM_P2
2021/08/07 00:00:53;;;;;;;3.20;1.40;;;18.40;72.10;;;;;;4973850;28;20062;-64
2021/08/07 00:03:19;;;;;;;2.75;1.60;;;18.40;72.10;;;;;;4975398;28;20034;-64
2021/08/07 00:05:45;;;;;;;2.78;1.67;;;18.40;72.50;;;;;;4980049;28;20041;-64
2021/08/07 00:08:11;;;;;;;1.73;1.35;;;18.40;72.40;;;;;;4977466;28;20041;-64
2021/08/07 00:10:37;;;;;;;2.65;1.45;;;18.40;72.40;;;;;;4978595;28;20043;-64
2021/08/07 00:13:03;;;;;;;1.90;1.45;;;18.40;72.50;;;;;;4973952;28;20130;-64
2021/08/07 00:15:29;;;;;;;2.67;1.55;;;18.30;72.30;;;;;;4984615;28;20049;-64
2021/08/07 00:17:55;;;;;;;1.50;1.30;;;18.30;72.40;;;;;;4978889;28;20047;-64
2021/08/07 00:20:20;;;;;;;2.47;1.30;;;18.40;72.40;;;;;;4973077;28;20042;-64
2021/08/07 00:22:46;;;;;;;2.13;1.25;;;18.40;72.40;;;;;;4980527;28;20042;-64
2021/08/07 00:25:12;;;;;;;1.48;1.38;;;18.40;72.30;;;;;;4999534;28;20066;-64
2021/08/07 00:27:38;;;;;;;3.63;1.45;;;18.40;72.70;;;;;;4979048;28;20076;-64
2021/08/07 00:30:05;;;;;;;1.58;1.30;;;18.40;72.70;;;;;;4981497;28;20038;-64
2021/08/07 00:32:31;;;;;;;2.42;1.33;;;18.40;72.80;;;;;;4978971;28;20085;-64
2021/08/07 00:34:57;;;;;;;1.60;1.20;;;18.40;72.60;;;;;;4989923;28;20046;-64
2021/08/07 00:37:23;;;;;;;2.28;1.10;;;18.40;72.70;;;;;;4981000;28;20030;-64
2021/08/07 00:39:49;;;;;;;2.47;1.42;;;18.40;73.00;;;;;;4970123;28;20034;-64
2021/08/07 00:42:14;;;;;;;2.38;1.45;;;18.30;72.60;;;;;;4970914;28;20070;-64
2021/08/07 00:44:40;;;;;;;1.48;1.10;;;18.40;72.80;;;;;;4969392;28;20065;-64
2021/08/07 00:47:06;;;;;;;1.80;1.30;;;18.30;73.20;;;;;;4979022;28;21838;-64
2021/08/07 00:49:31;;;;;;;1.50;1.30;;;18.30;73.20;;;;;;4973803;28;20058;-64
2021/08/07 00:51:57;;;;;;;3.05;1.60;;;18.20;73.50;;;;;;4977678;28;20035;-64
2021/08/07 00:54:23;;;;;;;1.85;1.38;;;18.30;73.50;;;;;;4985435;28;20045;-63
2021/08/07 00:56:49;;;;;;;2.30;1.35;;;18.20;73.30;;;;;;4976533;28;20062;-65
2021/08/07 00:59:14;;;;;;;2.42;1.40;;;18.20;73.60;;;;;;4968482;28;20550;-64
2021/08/07 01:01:58;;;;;;;1.50;1.40;;;18.20;73.80;;;;;;4972628;28;20037;-64
2021/08/07 01:04:27;;;;;;;1.48;1.30;;;18.20;74.40;;;;;;4980057;28;20051;-64
2021/08/07 01:07:04;;;;;;;4.10;1.52;;;18.20;73.90;;;;;;4977313;28;20046;-64
2021/08/07 01:09:59;;;;;;;2.55;1.40;;;18.20;74.30;;;;;;4974501;28;20085;-64
2021/08/07 01:12:28;;;;;;;2.00;1.40;;;18.20;74.60;;;;;;4984080;28;20035;-64
2021/08/07 01:14:58;;;;;;;1.65;1.30;;;18.10;73.80;;;;;;4974716;28;20125;-64
2021/08/07 01:17:27;;;;;;;2.80;1.30;;;18.10;74.00;;;;;;4975882;28;20045;-64
2021/08/07 01:20:11;;;;;;;1.50;1.30;;;18.10;74.20;;;;;;4971191;28;20043;-64
2021/08/07 01:23:01;;;;;;;2.13;1.50;;;18.10;74.80;;;;;;4977110;28;20045;-64
2021/08/07 01:25:39;;;;;;;2.05;1.38;;;18.10;74.60;;;;;;4973981;28;20038;-64
2021/08/07 01:28:05;;;;;;;1.65;1.40;;;18.10;74.50;;;;;;4970677;28;20122;-64
2021/08/07 01:30:31;;;;;;;1.48;1.25;;;18.00;74.30;;;;;;4988902;28;20034;-64
2021/08/07 01:32:57;;;;;;;2.63;1.58;;;18.00;74.50;;;;;;4973896;28;20034;-64
2021/08/07 01:35:23;;;;;;;2.80;1.40;;;18.00;74.70;;;;;;4972464;28;20038;-64
2021/08/07 01:37:49;;;;;;;1.75;1.50;;;17.90;74.90;;;;;;4975075;28;20062;-64
2021/08/07 01:40:15;;;;;;;2.17;1.23;;;17.90;74.90;;;;;;4968859;28;20220;-64
2021/08/07 01:42:40;;;;;;;2.55;1.50;;;17.90;74.90;;;;;;4970710;28;20034;-64
2021/08/07 01:45:06;;;;;;;3.33;1.58;;;17.90;75.10;;;;;;4983502;28;20045;-64
2021/08/07 01:47:50;;;;;;;2.00;1.20;;;17.90;75.30;;;;;;4967350;28;20097;-64
2021/08/07 01:50:24;;;;;;;2.30;1.27;;;17.90;76.10;;;;;;4982696;28;20506;-64
2021/08/07 01:52:58;;;;;;;1.60;1.35;;;17.90;75.60;;;;;;4974969;28;20034;-64
2021/08/07 01:55:29;;;;;;;1.88;1.55;;;17.90;75.90;;;;;;4966962;28;20037;-64
2021/08/07 01:58:03;;;;;;;2.00;1.70;;;17.90;76.50;;;;;;4972043;28;20733;-64
2021/08/07 02:00:29;;;;;;;2.03;1.50;;;17.90;75.80;;;;;;4972203;28;20034;-64
2021/08/07 02:02:56;;;;;;;3.80;1.70;;;17.90;75.50;;;;;;4976024;28;20038;-64
2021/08/07 02:05:22;;;;;;;1.75;1.65;;;17.90;75.60;;;;;;4979324;28;20030;-64
2021/08/07 02:07:50;;;;;;;2.05;1.58;;;17.90;75.80;;;;;;4978778;28;20050;-64
2021/08/07 02:10:17;;;;;;;2.95;1.50;;;17.90;75.80;;;;;;4991412;28;20050;-64
2021/08/07 02:12:45;;;;;;;2.60;1.33;;;18.00;75.90;;;;;;4972348;28;20487;-64
2021/08/07 02:15:12;;;;;;;5.18;1.48;;;18.00;76.00;;;;;;4978101;28;20187;-64
2021/08/07 02:17:41;;;;;;;3.35;1.48;;;18.00;75.90;;;;;;4974518;28;20030;-63
2021/08/07 02:20:07;;;;;;;3.20;1.63;;;18.10;75.80;;;;;;4975290;28;20038;-64
2021/08/07 02:22:33;;;;;;;2.15;1.35;;;18.00;75.60;;;;;;4973991;28;20043;-64
2021/08/07 02:24:59;;;;;;;1.73;1.60;;;18.00;75.50;;;;;;4982205;28;20414;-64
2021/08/07 02:27:25;;;;;;;3.50;1.67;;;18.10;75.70;;;;;;4985657;28;20084;-64
2021/08/07 02:29:51;;;;;;;4.03;1.60;;;18.00;75.60;;;;;;4989421;28;20651;-64
2021/08/07 02:32:17;;;;;;;2.67;1.58;;;18.10;75.80;;;;;;4972970;28;20031;-64
2021/08/07 02:34:44;;;;;;;3.30;1.65;;;18.10;76.40;;;;;;4976567;28;20047;-64
2021/08/07 02:37:09;;;;;;;2.67;1.60;;;18.20;75.30;;;;;;4989173;28;20049;-64
2021/08/07 02:39:35;;;;;;;1.90;1.50;;;18.10;75.10;;;;;;4999002;28;20418;-64
2021/08/07 02:42:02;;;;;;;1.98;1.48;;;18.20;75.10;;;;;;4980996;28;20043;-64
2021/08/07 02:44:28;;;;;;;1.67;1.45;;;18.20;75.10;;;;;;4981826;28;20034;-63
2021/08/07 02:46:54;;;;;;;2.13;1.40;;;18.20;75.10;;;;;;4976254;28;20030;-64
2021/08/07 02:49:21;;;;;;;2.75;1.40;;;18.20;74.90;;;;;;4984442;28;20549;-64
2021/08/07 02:51:49;;;;;;;2.05;1.60;;;18.20;74.80;;;;;;4986131;28;20572;-64
2021/08/07 02:54:16;;;;;;;3.13;1.55;;;18.20;75.60;;;;;;4995354;28;20522;-64
2021/08/07 02:56:42;;;;;;;2.85;1.50;;;18.10;74.60;;;;;;4981939;28;20042;-64
2021/08/07 02:59:09;;;;;;;1.75;1.27;;;18.00;74.40;;;;;;4979032;28;20026;-64
2021/08/07 03:01:35;;;;;;;3.35;1.42;;;18.10;74.60;;;;;;4972520;28;20070;-64
2021/08/07 03:04:00;;;;;;;1.63;1.42;;;18.00;74.50;;;;;;4973774;28;20122;-64
2021/08/07 03:06:26;;;;;;;1.83;1.48;;;18.00;74.70;;;;;;4978429;28;20453;-64
2021/08/07 03:08:52;;;;;;;1.77;1.42;;;18.00;74.70;;;;;;4981137;28;20113;-64
2021/08/07 03:11:17;;;;;;;2.95;1.42;;;17.90;74.70;;;;;;4976942;28;20043;-64
2021/08/07 03:13:43;;;;;;;2.30;1.70;;;17.90;74.90;;;;;;4974627;28;20053;-64
2021/08/07 03:16:09;;;;;;;1.70;1.60;;;17.90;75.10;;;;;;4979956;28;20105;-64
2021/08/07 03:18:34;;;;;;;1.70;1.60;;;17.90;75.20;;;;;;4972258;28;20075;-63
2021/08/07 03:21:00;;;;;;;1.90;1.45;;;17.80;75.00;;;;;;4974655;28;20034;-64
2021/08/07 03:23:26;;;;;;;1.67;1.58;;;17.80;75.10;;;;;;4980464;28;20034;-64
2021/08/07 03:25:51;;;;;;;1.98;1.50;;;17.70;75.20;;;;;;4979999;28;20712;-64
2021/08/07 03:28:17;;;;;;;1.52;1.40;;;17.70;75.20;;;;;;4985522;28;20134;-64
2021/08/07 03:30:43;;;;;;;1.88;1.30;;;17.70;76.40;;;;;;4972011;28;20038;-64
2021/08/07 03:33:09;;;;;;;1.55;1.42;;;17.60;75.60;;;;;;4989291;28;20042;-64
2021/08/07 03:35:34;;;;;;;4.43;1.33;;;17.60;75.80;;;;;;4978568;28;20038;-64
2021/08/07 03:38:00;;;;;;;2.42;1.60;;;17.60;75.70;;;;;;4983974;28;20058;-64
2021/08/07 03:40:25;;;;;;;2.15;1.38;;;17.60;75.90;;;;;;4978739;28;20125;-63
2021/08/07 03:42:51;;;;;;;1.38;1.27;;;17.50;76.10;;;;;;4977034;28;20050;-64
2021/08/07 03:45:17;;;;;;;2.40;1.77;;;17.50;76.10;;;;;;4984001;28;20060;-63
2021/08/07 03:47:53;;;;;;;2.95;1.80;;;17.50;76.10;;;;;;4983754;28;20537;-63
2021/08/07 03:50:20;;;;;;;1.80;1.60;;;17.50;76.80;;;;;;4974769;28;20035;-64
2021/08/07 03:52:47;;;;;;;1.77;1.40;;;17.50;76.30;;;;;;4981184;28;20062;-64
2021/08/07 03:55:13;;;;;;;3.58;1.58;;;17.50;76.20;;;;;;4973846;28;20035;-64
2021/08/07 03:57:57;;;;;;;2.78;1.48;;;17.40;76.40;;;;;;4979739;28;20039;-63
2021/08/07 04:00:25;;;;;;;2.53;1.70;;;17.40;77.00;;;;;;4970952;28;20074;-66
2021/08/07 04:02:51;;;;;;;3.00;1.55;;;17.40;76.40;;;;;;4970956;28;20510;-66
2021/08/07 04:05:17;;;;;;;2.03;1.40;;;17.30;76.50;;;;;;4994305;28;20846;-66
2021/08/07 04:07:43;;;;;;;6.03;1.55;;;17.30;76.60;;;;;;4975367;28;20122;-66
2021/08/07 04:10:09;;;;;;;2.30;1.35;;;17.20;76.70;;;;;;4978167;28;20043;-66
2021/08/07 04:12:35;;;;;;;2.08;1.42;;;17.20;76.90;;;;;;4973542;28;20038;-66
2021/08/07 04:15:01;;;;;;;2.05;1.38;;;17.10;76.90;;;;;;4974134;28;20027;-66
2021/08/07 04:17:27;;;;;;;2.72;1.55;;;17.10;77.20;;;;;;5001473;28;20037;-66
2021/08/07 04:19:52;;;;;;;4.20;1.45;;;17.00;77.40;;;;;;4967335;28;20517;-66
2021/08/07 04:22:18;;;;;;;3.05;1.67;;;17.00;77.70;;;;;;4974708;28;20578;-66
2021/08/07 04:24:43;;;;;;;2.15;1.38;;;17.00;77.70;;;;;;4978411;28;20039;-66
2021/08/07 04:27:09;;;;;;;4.05;1.50;;;17.00;77.70;;;;;;4971080;28;20070;-66
2021/08/07 04:29:35;;;;;;;2.38;1.50;;;17.10;77.70;;;;;;4980331;28;20066;-66
2021/08/07 04:32:00;;;;;;;3.28;1.50;;;17.10;77.80;;;;;;4972526;28;20044;-66
2021/08/07 04:34:26;;;;;;;3.30;1.50;;;17.20;77.80;;;;;;4977046;28;20417;-66
2021/08/07 04:36:52;;;;;;;2.33;1.40;;;17.20;77.70;;;;;;4972190;28;20117;-66
2021/08/07 04:39:17;;;;;;;4.45;1.70;;;17.20;77.70;;;;;;4977538;28;20042;-67
2021/08/07 04:41:44;;;;;;;2.65;1.65;;;17.30;77.80;;;;;;4982087;28;20704;-66
2021/08/07 04:44:09;;;;;;;1.60;1.50;;;17.40;77.70;;;;;;4990227;28;20046;-66
2021/08/07 04:46:35;;;;;;;1.88;1.27;;;17.40;77.50;;;;;;4967733;28;20458;-66
2021/08/07 04:49:01;;;;;;;3.08;1.42;;;17.40;77.40;;;;;;4974607;28;20054;-66
2021/08/07 04:51:27;;;;;;;2.83;1.50;;;17.40;77.60;;;;;;4974398;28;20034;-66
2021/08/07 04:53:53;;;;;;;1.50;1.40;;;17.40;77.40;;;;;;4981003;28;20438;-66
2021/08/07 04:56:19;;;;;;;1.40;1.30;;;17.50;77.50;;;;;;4983617;28;20543;-66
2021/08/07 04:58:44;;;;;;;3.65;1.63;;;17.50;77.40;;;;;;4974439;28;20039;-66
2021/08/07 05:01:11;;;;;;;1.83;1.35;;;17.50;77.30;;;;;;4974741;28;20043;-66
2021/08/07 05:03:36;;;;;;;4.35;1.73;;;17.50;77.20;;;;;;4978489;28;20510;-66
2021/08/07 05:06:02;;;;;;;2.92;2.40;;;17.60;77.20;;;;;;4977911;28;20038;-66
2021/08/07 05:08:27;;;;;;;5.05;4.03;;;17.60;77.30;;;;;;4974432;28;20073;-63
2021/08/07 05:10:53;;;;;;;3.45;3.15;;;17.60;77.40;;;;;;4977281;28;20060;-64
2021/08/07 05:13:19;;;;;;;2.58;2.15;;;17.60;77.50;;;;;;4980805;28;20031;-64
2021/08/07 05:15:44;;;;;;;6.55;2.50;;;17.60;77.40;;;;;;4980777;28;20640;-64
2021/08/07 05:18:10;;;;;;;5.43;2.28;;;17.70;77.70;;;;;;4978661;28;20035;-64
2021/08/07 05:20:36;;;;;;;3.60;2.28;;;17.70;77.50;;;;;;4984612;28;20549;-64
2021/08/07 05:23:02;;;;;;;6.65;2.25;;;17.70;77.60;;;;;;4969367;28;20039;-64
2021/08/07 05:25:27;;;;;;;4.50;2.33;;;17.80;77.40;;;;;;4976102;28;20035;-64
2021/08/07 05:27:53;;;;;;;3.92;1.70;;;17.80;77.30;;;;;;4992645;28;20170;-64
2021/08/07 05:30:19;;;;;;;2.80;1.75;;;17.80;77.30;;;;;;4976152;28;20383;-64
2021/08/07 05:32:44;;;;;;;4.43;1.90;;;17.90;77.50;;;;;;4969539;28;20096;-63
2021/08/07 05:35:10;;;;;;;3.10;1.65;;;17.90;77.30;;;;;;4973464;28;20045;-64
2021/08/07 05:37:43;;;;;;;2.13;1.65;;;17.90;77.30;;;;;;4970313;28;20034;-63
2021/08/07 05:40:10;;;;;;;2.83;1.60;;;17.90;77.70;;;;;;4968331;28;20526;-64
2021/08/07 05:42:36;;;;;;;4.07;1.85;;;17.90;77.70;;;;;;4968114;28;20089;-64
2021/08/07 05:45:02;;;;;;;2.05;1.73;;;17.90;77.80;;;;;;4985560;28;20038;-63
2021/08/07 05:47:28;;;;;;;1.80;1.70;;;17.90;78.20;;;;;;4966149;28;20047;-63
2021/08/07 05:49:53;;;;;;;2.00;1.80;;;17.90;78.20;;;;;;4962731;28;20031;-63
2021/08/07 05:52:19;;;;;;;3.30;1.75;;;17.90;78.20;;;;;;4951362;28;20058;-64
2021/08/07 05:54:45;;;;;;;2.17;1.90;;;18.00;78.20;;;;;;4953051;28;20062;-64
2021/08/07 05:57:10;;;;;;;1.90;1.77;;;18.10;78.40;;;;;;4953437;28;20150;-64
2021/08/07 05:59:36;;;;;;;2.70;1.73;;;18.00;78.40;;;;;;4956580;28;20129;-64
2021/08/07 06:02:02;;;;;;;4.13;2.28;;;18.10;78.40;;;;;;4971074;28;20170;-64
2021/08/07 06:04:28;;;;;;;2.35;2.00;;;18.10;78.40;;;;;;4951815;28;20211;-64
2021/08/07 06:06:54;;;;;;;6.30;2.42;;;18.10;78.20;;;;;;4966407;28;21665;-64
2021/08/07 06:09:19;;;;;;;3.08;1.98;;;18.20;78.50;;;;;;4957440;28;20035;-64
2021/08/07 06:11:45;;;;;;;2.60;1.95;;;18.20;78.90;;;;;;4957390;28;20038;-64
2021/08/07 06:14:11;;;;;;;4.93;2.15;;;18.20;78.90;;;;;;4956816;28;20741;-64
2021/08/07 06:16:36;;;;;;;4.85;2.10;;;18.30;79.00;;;;;;4964303;28;20089;-64
2021/08/07 06:19:02;;;;;;;2.47;2.00;;;18.30;78.80;;;;;;4960034;28;20043;-64
2021/08/07 06:21:28;;;;;;;3.13;2.30;;;18.30;78.60;;;;;;4959197;28;20034;-64
2021/08/07 06:23:55;;;;;;;2.88;2.28;;;18.40;78.70;;;;;;4956397;28;20518;-64
2021/08/07 06:26:20;;;;;;;3.15;2.15;;;18.50;78.60;;;;;;4969968;28;20703;-64
2021/08/07 06:28:46;;;;;;;3.28;2.13;;;18.60;78.30;;;;;;4957145;28;20043;-64
2021/08/07 06:31:12;;;;;;;2.35;2.15;;;18.60;78.20;;;;;;4956067;28;20031;-64
2021/08/07 06:33:38;;;;;;;7.00;2.55;;;18.70;77.90;;;;;;4964057;28;20050;-64
2021/08/07 06:36:04;;;;;;;6.38;2.40;;;18.80;77.70;;;;;;4958171;28;20874;-65
2021/08/07 06:38:30;;;;;;;5.30;2.67;;;18.90;77.60;;;;;;4957377;28;20061;-64
2021/08/07 06:40:55;;;;;;;6.18;2.35;;;18.90;77.30;;;;;;4954645;28;20039;-64
2021/08/07 06:43:21;;;;;;;3.88;2.45;;;18.90;77.30;;;;;;4959194;28;20043;-64
2021/08/07 06:45:47;;;;;;;2.47;2.22;;;19.00;77.40;;;;;;4972070;28;20682;-64
2021/08/07 06:48:13;;;;;;;4.10;2.17;;;19.00;77.50;;;;;;4962110;28;20122;-64
2021/08/07 06:50:39;;;;;;;5.80;2.50;;;19.10;77.40;;;;;;4955920;28;20082;-64
2021/08/07 06:53:04;;;;;;;6.95;2.75;;;19.10;77.70;;;;;;4961732;28;20035;-64
2021/08/07 06:55:30;;;;;;;3.13;2.47;;;19.20;77.70;;;;;;4957334;28;20122;-64
2021/08/07 06:57:56;;;;;;;5.53;2.40;;;19.30;77.30;;;;;;4957371;28;20042;-64
2021/08/07 07:00:22;;;;;;;3.95;2.40;;;19.30;77.00;;;;;;4953609;28;20090;-59
2021/08/07 07:02:47;;;;;;;3.35;2.50;;;19.30;76.80;;;;;;4965926;28;20113;-64
2021/08/07 07:05:13;;;;;;;2.60;2.25;;;19.40;76.60;;;;;;4969902;28;20674;-64
2021/08/07 07:07:39;;;;;;;3.22;2.05;;;19.50;76.60;;;;;;4957105;28;20043;-64
2021/08/07 07:10:08;;;;;;;4.43;2.25;;;19.50;76.60;;;;;;4957983;28;20050;-64
2021/08/07 07:12:33;;;;;;;5.75;2.40;;;19.60;77.00;;;;;;4967654;28;20043;-64
2021/08/07 07:14:59;;;;;;;2.92;2.20;;;19.60;76.50;;;;;;4979809;28;20034;-64
2021/08/07 07:17:26;;;;;;;3.17;2.20;;;19.70;76.30;;;;;;4979760;28;20057;-64
2021/08/07 07:19:51;;;;;;;4.18;1.95;;;19.80;76.30;;;;;;4978967;28;20062;-64
2021/08/07 07:22:17;;;;;;;3.30;2.00;;;19.90;76.10;;;;;;4981629;28;20031;-64
2021/08/07 07:24:42;;;;;;;2.42;2.05;;;19.90;76.10;;;;;;4983093;28;20046;-64
2021/08/07 07:27:08;;;;;;;2.65;1.85;;;20.00;76.10;;;;;;4979601;28;20588;-64
2021/08/07 07:29:34;;;;;;;2.17;1.98;;;20.00;75.70;;;;;;4984341;28;20506;-64
2021/08/07 07:31:59;;;;;;;3.72;2.33;;;20.10;75.70;;;;;;4971717;28;20090;-65
2021/08/07 07:34:25;;;;;;;4.93;2.40;;;20.20;75.60;;;;;;4980140;28;20529;-64
2021/08/07 07:36:51;;;;;;;3.40;2.22;;;20.20;76.20;;;;;;4974425;28;20627;-63
2021/08/07 07:39:17;;;;;;;4.63;1.98;;;20.20;76.10;;;;;;4981286;28;20042;-64
2021/08/07 07:41:42;;;;;;;3.10;2.17;;;20.20;76.20;;;;;;4981096;28;20035;-64
2021/08/07 07:44:08;;;;;;;2.95;1.92;;;20.10;76.00;;;;;;4996810;28;20034;-64
2021/08/07 07:46:34;;;;;;;4.15;2.30;;;20.10;76.10;;;;;;4979292;28;20050;-64
2021/08/07 07:49:01;;;;;;;3.33;2.53;;;20.10;76.10;;;;;;4982925;28;20034;-63
2021/08/07 07:51:26;;;;;;;4.50;2.45;;;20.00;76.20;;;;;;4981410;28;20034;-64
2021/08/07 07:53:52;;;;;;;4.72;2.30;;;20.00;76.30;;;;;;4993384;28;20430;-63
2021/08/07 07:56:18;;;;;;;2.53;2.25;;;20.00;77.10;;;;;;4981485;28;20049;-63
2021/08/07 07:58:43;;;;;;;5.25;2.60;;;19.90;77.20;;;;;;4978915;28;20039;-63
2021/08/07 08:01:09;;;;;;;3.80;2.53;;;19.90;77.20;;;;;;4980719;28;20062;-64
2021/08/07 08:03:35;;;;;;;3.60;2.20;;;19.90;77.60;;;;;;4980495;28;20058;-64
2021/08/07 08:06:01;;;;;;;6.20;2.75;;;19.90;77.40;;;;;;4981609;28;20038;-63
2021/08/07 08:08:26;;;;;;;6.20;2.67;;;19.90;77.20;;;;;;4978566;28;20463;-64
2021/08/07 08:10:52;;;;;;;3.97;2.20;;;19.90;77.60;;;;;;4977141;28;20089;-64
2021/08/07 08:13:19;;;;;;;2.75;1.90;;;19.80;77.30;;;;;;4981871;28;20290;-64
2021/08/07 08:15:46;;;;;;;2.20;1.85;;;19.90;77.40;;;;;;4979505;28;20445;-64
2021/08/07 08:18:12;;;;;;;2.38;1.67;;;19.90;77.60;;;;;;4990442;28;20051;-64
2021/08/07 08:20:38;;;;;;;3.97;1.70;;;19.90;77.70;;;;;;4978892;28;20042;-64
2021/08/07 08:23:04;;;;;;;2.97;1.50;;;19.90;78.00;;;;;;4977614;28;20144;-64
2021/08/07 08:25:31;;;;;;;4.55;1.90;;;19.90;78.40;;;;;;4978227;28;20043;-63
2021/08/07 08:27:57;;;;;;;4.05;1.95;;;19.80;78.60;;;;;;4981079;28;20081;-64
2021/08/07 08:30:23;;;;;;;3.88;1.90;;;19.80;78.40;;;;;;4977305;28;20046;-63
2021/08/07 08:32:49;;;;;;;2.42;1.85;;;19.90;78.70;;;;;;4977114;28;20042;-63
2021/08/07 08:35:14;;;;;;;4.15;1.52;;;19.90;78.90;;;;;;4995787;28;20387;-63
2021/08/07 08:37:40;;;;;;;3.50;1.60;;;19.90;79.10;;;;;;4986577;28;20042;-64
2021/08/07 08:40:08;;;;;;;2.20;1.65;;;20.00;79.60;;;;;;4982795;28;20057;-64
2021/08/07 08:42:33;;;;;;;3.53;1.83;;;20.00;80.30;;;;;;4981247;28;20065;-64
2021/08/07 08:45:00;;;;;;;3.55;1.98;;;20.10;80.10;;;;;;4978602;28;20039;-64
2021/08/07 08:47:26;;;;;;;2.03;1.83;;;20.20;80.00;;;;;;4983657;28;20552;-64
2021/08/07 08:49:53;;;;;;;1.60;1.50;;;20.30;79.70;;;;;;4985903;28;20042;-64
2021/08/07 08:52:24;;;;;;;1.92;1.77;;;20.40;79.40;;;;;;4981995;28;20030;-64
2021/08/07 08:54:50;;;;;;;3.10;1.70;;;20.50;79.30;;;;;;4984269;28;20498;-64
2021/08/07 08:57:16;;;;;;;2.95;2.10;;;20.60;78.70;;;;;;4982961;28;20081;-64
2021/08/07 08:59:43;;;;;;;3.05;2.20;;;20.60;78.60;;;;;;4982573;28;20031;-64
2021/08/07 09:02:09;;;;;;;3.47;1.80;;;20.70;78.60;;;;;;4985660;28;20050;-64
2021/08/07 09:04:35;;;;;;;3.00;1.92;;;20.70;78.30;;;;;;4982841;28;20512;-64
2021/08/07 09:07:00;;;;;;;4.03;2.13;;;20.90;78.20;;;;;;4986380;28;20494;-64
2021/08/07 09:09:40;;;;;;;2.58;1.90;;;20.90;78.30;;;;;;4985316;28;20047;-64
2021/08/07 09:12:08;;;;;;;4.55;1.85;;;21.00;78.00;;;;;;4991053;28;20041;-63
2021/08/07 09:14:39;;;;;;;2.75;1.90;;;21.10;77.90;;;;;;4980905;28;20034;-66
2021/08/07 09:17:09;;;;;;;4.63;2.72;;;21.20;77.70;;;;;;4983474;28;20022;-66
2021/08/07 09:19:41;;;;;;;4.03;2.20;;;21.20;77.40;;;;;;4982259;28;20437;-63
2021/08/07 09:22:17;;;;;;;2.22;2.03;;;21.30;77.30;;;;;;4983380;28;20022;-64
2021/08/07 09:25:09;;;;;;;2.40;2.20;;;21.30;76.50;;;;;;4991112;28;20050;-64
2021/08/07 09:27:38;;;;;;;3.55;1.98;;;21.40;76.90;;;;;;4986731;28;20038;-64
2021/08/07 09:30:25;;;;;;;2.90;2.20;;;21.40;76.00;;;;;;4986233;28;20545;-64
2021/08/07 09:32:56;;;;;;;2.60;2.00;;;21.40;75.40;;;;;;4985616;28;20031;-64
2021/08/07 09:35:27;;;;;;;4.10;2.22;;;21.50;76.20;;;;;;4966685;28;20140;-64
2021/08/07 09:38:14;;;;;;;2.30;2.10;;;21.50;77.20;;;;;;4972363;28;20533;-64
2021/08/07 09:40:48;;;;;;;2.40;2.13;;;21.50;75.80;;;;;;4973234;28;20041;-63
2021/08/07 09:43:18;;;;;;;3.47;2.20;;;21.60;76.00;;;;;;4977661;28;20049;-64
2021/08/07 09:45:44;;;;;;;2.92;2.40;;;21.60;76.10;;;;;;4972018;28;20037;-64
2021/08/07 09:48:15;;;;;;;3.15;2.30;;;21.60;75.70;;;;;;4984734;28;20042;-64
2021/08/07 09:50:41;;;;;;;2.63;2.08;;;21.70;75.20;;;;;;4970579;28;20041;-64
2021/08/07 09:53:21;;;;;;;5.53;2.13;;;21.70;75.20;;;;;;4970535;28;20038;-64
2021/08/07 09:56:00;;;;;;;4.65;1.98;;;21.80;75.20;;;;;;4970696;28;20061;-64
2021/08/07 09:58:26;;;;;;;4.70;1.80;;;21.70;75.40;;;;;;4975316;28;20035;-64
2021/08/07 10:00:52;;;;;;;3.55;2.00;;;21.70;75.50;;;;;;4968840;28;20031;-64
2021/08/07 10:03:23;;;;;;;5.03;2.22;;;21.70;75.30;;;;;;4970557;28;20043;-63
2021/08/07 10:05:50;;;;;;;2.65;1.83;;;21.70;75.00;;;;;;4988891;28;20521;-64
2021/08/07 10:08:17;;;;;;;2.53;2.17;;;21.70;74.70;;;;;;4985168;28;20045;-64
2021/08/07 10:10:45;;;;;;;2.83;2.28;;;21.60;74.60;;;;;;4977802;28;20047;-64
2021/08/07 10:13:11;;;;;;;3.72;2.17;;;21.60;74.50;;;;;;4987555;28;20030;-64
2021/08/07 10:15:40;;;;;;;2.53;1.98;;;21.50;75.40;;;;;;4977069;28;20030;-64
2021/08/07 10:18:07;;;;;;;4.55;1.88;;;21.60;74.60;;;;;;4983065;28;20534;-64
2021/08/07 10:20:39;;;;;;;2.38;1.95;;;21.50;74.90;;;;;;4993675;28;20038;-64
2021/08/07 10:23:05;;;;;;;3.40;2.20;;;21.50;74.90;;;;;;4976448;28;20137;-64
2021/08/07 10:25:33;;;;;;;3.65;1.90;;;21.40;75.30;;;;;;4989008;28;20418;-64
2021/08/07 10:28:01;;;;;;;4.18;2.08;;;21.40;75.80;;;;;;4987107;28;20058;-64
2021/08/07 10:30:30;;;;;;;2.17;1.88;;;21.40;75.70;;;;;;4983267;28;20125;-64
2021/08/07 10:32:58;;;;;;;4.60;2.10;;;21.40;76.00;;;;;;4978538;28;20450;-64
2021/08/07 10:35:26;;;;;;;2.50;2.10;;;21.40;75.90;;;;;;4986017;28;20046;-64
2021/08/07 10:37:56;;;;;;;3.25;2.08;;;21.40;75.50;;;;;;4983802;28;20039;-64
2021/08/07 10:40:22;;;;;;;3.65;1.90;;;21.50;75.40;;;;;;4989024;28;20042;-64
2021/08/07 10:42:50;;;;;;;3.25;2.50;;;21.50;75.60;;;;;;4986501;28;20038;-64
2021/08/07 10:45:16;;;;;;;2.85;2.30;;;21.50;75.70;;;;;;4985074;28;20045;-64
2021/08/07 10:47:44;;;;;;;2.70;1.88;;;21.50;75.80;;;;;;4985354;28;20041;-64
2021/08/07 10:50:30;;;;;;;3.90;2.20;;;21.40;75.70;;;;;;4980665;28;20062;-64
2021/08/07 10:53:21;;;;;;;4.22;2.25;;;21.40;75.80;;;;;;4987411;28;20034;-64
2021/08/07 10:55:53;;;;;;;3.25;2.03;;;21.30;75.90;;;;;;4978950;28;20041;-65
2021/08/07 10:58:37;;;;;;;4.78;2.28;;;21.30;76.00;;;;;;4988289;28;20577;-64
2021/08/07 11:01:27;;;;;;;3.83;2.47;;;21.30;76.60;;;;;;4984959;28;20046;-64
2021/08/07 11:04:02;;;;;;;3.17;2.53;;;21.30;77.20;;;;;;4981897;28;20173;-64
2021/08/07 11:06:43;;;;;;;2.63;2.42;;;21.30;76.30;;;;;;5002971;28;20457;-64
2021/08/07 11:09:32;;;;;;;3.17;2.35;;;21.20;76.50;;;;;;4987680;28;20065;-64
2021/08/07 11:12:07;;;;;;;3.85;2.90;;;21.20;77.20;;;;;;4972099;28;20368;-64
2021/08/07 11:14:35;;;;;;;4.90;2.95;;;21.20;77.30;;;;;;4986129;28;20080;-64
2021/08/07 11:17:07;;;;;;;3.95;3.20;;;21.20;77.20;;;;;;4987028;28;20126;-64
2021/08/07 11:20:00;;;;;;;3.05;2.63;;;21.20;77.40;;;;;;4979843;28;20470;-64
2021/08/07 11:22:32;;;;;;;3.90;2.92;;;21.20;76.80;;;;;;4984622;28;20038;-64
2021/08/07 11:25:17;;;;;;;3.60;2.78;;;21.20;77.60;;;;;;4989550;28;20019;-64
2021/08/07 11:27:46;;;;;;;5.75;2.97;;;21.20;77.20;;;;;;4983177;28;20037;-64
2021/08/07 11:30:23;;;;;;;4.90;2.75;;;21.20;77.00;;;;;;4980784;28;20121;-64
2021/08/07 11:32:58;;;;;;;3.83;2.70;;;21.20;77.70;;;;;;4983123;28;20026;-64
2021/08/07 11:35:37;;;;;;;4.35;2.47;;;21.10;76.80;;;;;;4982794;28;20038;-64
2021/08/07 11:38:06;;;;;;;3.10;2.80;;;21.10;76.80;;;;;;4982667;28;20102;-64
2021/08/07 11:40:55;;;;;;;3.90;2.47;;;21.10;76.80;;;;;;4987949;28;20037;-64
2021/08/07 11:43:28;;;;;;;3.50;2.58;;;21.10;76.60;;;;;;4987355;28;20041;-64
2021/08/07 11:45:54;;;;;;;2.63;2.40;;;21.10;76.70;;;;;;4984019;28;20063;-64
2021/08/07 11:48:45;;;;;;;2.67;2.47;;;21.00;76.80;;;;;;4983399;28;20112;-64
2021/08/07 11:51:15;;;;;;;4.13;2.70;;;21.10;76.70;;;;;;4980550;28;20045;-64
2021/08/07 11:53:43;;;;;;;4.18;2.50;;;21.10;76.70;;;;;;4986170;28;20041;-63
2021/08/07 11:56:15;;;;;;;2.75;2.55;;;21.10;76.30;;;;;;4975369;28;20326;-64
2021/08/07 11:58:49;;;;;;;3.60;2.63;;;21.10;76.50;;;;;;4971387;28;20160;-64
2021/08/07 12:01:15;;;;;;;4.38;2.40;;;21.10;76.10;;;;;;4968905;28;20078;-64
2021/08/07 12:03:44;;;;;;;2.30;2.10;;;21.00;76.00;;;;;;4979313;28;20054;-64
2021/08/07 12:06:11;;;;;;;2.45;1.80;;;21.00;75.40;;;;;;4987561;28;20430;-64
2021/08/07 12:08:37;;;;;;;1.77;1.40;;;21.10;75.40;;;;;;4984352;28;20031;-64
2021/08/07 12:11:12;;;;;;;1.98;1.20;;;21.00;74.70;;;;;;4978671;28;20037;-64
2021/08/07 12:13:42;;;;;;;;;;;21.00;74.40;;;;;;4982560;28;20409;-64
2021/08/07 12:16:10;;;;;;;1.80;1.00;;;20.90;73.20;;;;;;4968484;28;19917;-64
2021/08/07 12:18:43;;;;;;;2.38;1.08;;;21.00;73.40;;;;;;4977720;28;20050;-64
2021/08/07 12:21:11;;;;;;;1.35;1.10;;;20.90;72.50;;;;;;4965670;28;20038;-64
2021/08/07 12:23:39;;;;;;;2.53;1.30;;;20.90;72.60;;;;;;4972709;28;20038;-64
2021/08/07 12:26:05;;;;;;;1.50;1.00;;;20.80;72.60;;;;;;4984382;28;20584;-64
2021/08/07 12:28:30;;;;;;;1.50;1.20;;;20.80;72.50;;;;;;4988547;28;20133;-64
2021/08/07 12:31:01;;;;;;;1.52;1.10;;;20.80;73.20;;;;;;4972153;28;20038;-64
2021/08/07 12:33:29;;;;;;;1.77;1.17;;;20.80;72.80;;;;;;4973591;28;20038;-64
2021/08/07 12:35:55;;;;;;;1.10;1.00;;;20.80;72.50;;;;;;4978416;28;20092;-64
2021/08/07 12:38:26;;;;;;;2.25;1.25;;;20.80;72.60;;;;;;4993507;28;20034;-64
2021/08/07 12:41:01;;;;;;;1.65;1.55;;;20.80;72.00;;;;;;4982864;28;20073;-64
2021/08/07 12:43:31;;;;;;;3.42;1.30;;;20.80;71.00;;;;;;4992141;28;20056;-64
2021/08/07 12:46:04;;;;;;;1.45;0.85;;;20.70;72.00;;;;;;4967909;28;20038;-64
2021/08/07 12:48:53;;;;;;;1.55;1.17;;;20.70;72.20;;;;;;4971424;28;20526;-65
2021/08/07 12:51:21;;;;;;;2.80;1.55;;;20.70;70.50;;;;;;4971513;28;20054;-64
2021/08/07 12:53:47;;;;;;;1.00;0.88;;;20.60;71.20;;;;;;4976909;28;20053;-64